| time (UTC) | temp F | wind direction | speed MPH | gust MPH | rain 1hr in | rain 24hr in | rain mn in | humidity % | barometer mb |
| 20260509161852 | 51 | 66 | 1.0 | 2.0 | 0.00 | 0.00 | 0.00 | 87 | 1008.5 |
| 20260509161348 | 51 | 53 | 1.0 | 3.0 | 0.00 | 0.00 | 0.00 | 87 | 1008.9 |
| 20260509160844 | 51 | 71 | 2.0 | 2.0 | 0.00 | 0.00 | 0.00 | 86 | 1008.9 |
| 20260509160340 | 51 | 3 | 0.0 | 0.0 | 0.00 | 0.00 | 0.00 | 86 | 1009.0 |
| 20260509155835 | 51 | 61 | 0.0 | 0.0 | 0.00 | 0.00 | 0.00 | 85 | 1009.0 |
| 20260509155332 | 51 | 53 | 1.0 | 2.0 | 0.00 | 0.00 | 0.00 | 85 | 1009.0 |
| 20260509154828 | 51 | 10 | 1.0 | 1.0 | 0.00 | 0.00 | 0.00 | 84 | 1009.1 |
| 20260509154325 | 51 | 47 | 2.0 | 2.0 | 0.00 | 0.00 | 0.00 | 83 | 1009.0 |
| 20260509153822 | 52 | 42 | 0.0 | 1.0 | 0.00 | 0.00 | 0.00 | 83 | 1009.0 |
| 20260509153318 | 52 | 21 | 1.0 | 2.0 | 0.00 | 0.00 | 0.00 | 83 | 1009.3 |
| 20260509152815 | 52 | 38 | 0.0 | 0.0 | 0.00 | 0.00 | 0.00 | 82 | 1009.0 |
| 20260509152311 | 52 | 49 | 2.0 | 3.0 | 0.00 | 0.00 | 0.00 | 82 | 1009.3 |
| 20260509151809 | 53 | 54 | 0.0 | 0.0 | 0.00 | 0.00 | 0.00 | 82 | 1009.2 |
| 20260509151305 | 53 | 105 | 0.0 | 1.0 | 0.00 | 0.00 | 0.00 | 82 | 1009.2 |
| 20260509150804 | 53 | 54 | 0.0 | 0.0 | 0.00 | 0.00 | 0.00 | 82 | 1009.5 |
| 20260509150301 | 52 | 54 | 0.0 | 0.0 | 0.00 | 0.00 | 0.00 | 82 | 1009.3 |
| 20260509145758 | 52 | 88 | 2.0 | 3.0 | 0.00 | 0.00 | 0.00 | 82 | 1009.2 |
| 20260509145257 | 52 | 61 | 2.0 | 3.0 | 0.00 | 0.00 | 0.00 | 81 | 1009.3 |
| 20260509144754 | 53 | 48 | 1.0 | 2.0 | 0.00 | 0.00 | 0.00 | 81 | 1009.3 |
| 20260509144251 | 53 | 99 | 0.0 | 1.0 | 0.00 | 0.00 | 0.00 | 81 | 1009.5 |
| 20260509143748 | 52 | 30 | 0.0 | 1.0 | 0.00 | 0.00 | 0.00 | 81 | 1009.7 |
| 20260509143246 | 52 | 63 | 2.0 | 2.0 | 0.00 | 0.00 | 0.00 | 81 | 1009.4 |
| 20260509142741 | 52 | 33 | 0.0 | 1.0 | 0.00 | 0.00 | 0.00 | 81 | 1009.5 |
| 20260509142238 | 52 | 58 | 2.0 | 3.0 | 0.00 | 0.00 | 0.00 | 81 | 1009.5 |
| 20260509141733 | 52 | 34 | 0.0 | 0.0 | 0.00 | 0.00 | 0.00 | 82 | 1009.6 |
| 20260509141231 | 51 | 209 | 0.0 | 0.0 | 0.00 | 0.00 | 0.00 | 82 | 1009.8 |
| 20260509140728 | 51 | 48 | 1.0 | 2.0 | 0.00 | 0.00 | 0.00 | 82 | 1009.6 |
| 20260509140225 | 50 | 0 | 0.0 | 0.0 | 0.00 | 0.00 | 0.00 | 82 | 1009.6 |
| 20260509135722 | 50 | 45 | 0.0 | 0.0 | 0.00 | 0.00 | 0.00 | 82 | 1009.6 |
| 20260509135220 | 50 | 28 | 2.0 | 2.0 | 0.00 | 0.00 | 0.00 | 82 | 1009.5 |
| 20260509134717 | 50 | 63 | 0.0 | 1.0 | 0.00 | 0.00 | 0.00 | 82 | 1009.5 |
| 20260509134214 | 50 | 63 | 3.0 | 5.0 | 0.00 | 0.00 | 0.00 | 83 | 1009.9 |
| 20260509133711 | 50 | 42 | 0.0 | 1.0 | 0.00 | 0.00 | 0.00 | 83 | 1009.9 |
| 20260509133208 | 49 | 58 | 0.0 | 1.0 | 0.00 | 0.00 | 0.00 | 83 | 1010.1 |
| 20260509132707 | 49 | 8 | 0.0 | 0.0 | 0.00 | 0.00 | 0.00 | 83 | 1009.9 |
| 20260509132205 | 48 | 52 | 0.0 | 1.0 | 0.00 | 0.00 | 0.00 | 83 | 1009.9 |
| 20260509131701 | 48 | 31 | 0.0 | 0.0 | 0.00 | 0.00 | 0.00 | 84 | 1010.1 |
| 20260509131158 | 47 | 56 | 1.0 | 2.0 | 0.00 | 0.00 | 0.00 | 83 | 1009.9 |
| 20260509130653 | 47 | 71 | 1.0 | 1.0 | 0.00 | 0.00 | 0.00 | 84 | 1010.1 |
| 20260509130150 | 47 | 49 | 1.0 | 2.0 | 0.00 | 0.00 | 0.00 | 84 | 1009.9 |
| 20260509125646 | 47 | 8 | 0.0 | 0.0 | 0.00 | 0.00 | 0.00 | 84 | 1010.1 |
| 20260509125143 | 46 | 40 | 0.0 | 0.0 | 0.00 | 0.00 | 0.00 | 84 | 1009.9 |
| 20260509124640 | 46 | 69 | 0.0 | 0.0 | 0.00 | 0.00 | 0.00 | 84 | 1010.1 |
| 20260509124137 | 46 | 87 | 1.0 | 2.0 | 0.00 | 0.00 | 0.00 | 84 | 1010.0 |
| 20260509123634 | 45 | 57 | 0.0 | 0.0 | 0.00 | 0.00 | 0.00 | 84 | 1010.0 |
| 20260509123131 | 45 | 28 | 0.0 | 0.0 | 0.00 | 0.00 | 0.00 | 85 | 1009.9 |
| 20260509122627 | 45 | 62 | 0.0 | 1.0 | 0.00 | 0.00 | 0.00 | 85 | 1010.2 |
| 20260509122124 | 45 | 45 | 2.0 | 2.0 | 0.00 | 0.00 | 0.00 | 86 | 1010.3 |
| 20260509121621 | 44 | 45 | 0.0 | 0.0 | 0.00 | 0.00 | 0.00 | 86 | 1010.2 |
| 20260509121119 | 44 | 30 | 0.0 | 0.0 | 0.00 | 0.00 | 0.00 | 86 | 1010.3 |
| 20260509120616 | 44 | 20 | 0.0 | 0.0 | 0.00 | 0.00 | 0.00 | 87 | 1010.1 |
| 20260509120115 | 44 | 29 | 1.0 | 2.0 | 0.00 | 0.00 | 0.00 | 87 | 1010.3 |
| 20260509115611 | 44 | 5 | 0.0 | 0.0 | 0.00 | 0.00 | 0.00 | 88 | 1010.2 |
| 20260509115109 | 44 | 343 | 0.0 | 0.0 | 0.00 | 0.00 | 0.00 | 88 | 1010.1 |
| 20260509114607 | 43 | 352 | 0.0 | 0.0 | 0.00 | 0.00 | 0.00 | 89 | 1010.3 |
| 20260509114106 | 43 | 347 | 0.0 | 0.0 | 0.00 | 0.00 | 0.00 | 89 | 1010.2 |
| 20260509113603 | 43 | 352 | 0.0 | 0.0 | 0.00 | 0.00 | 0.00 | 90 | 1010.4 |
| 20260509113101 | 43 | 315 | 1.0 | 2.0 | 0.00 | 0.00 | 0.00 | 91 | 1010.3 |
| 20260509112557 | 43 | 334 | 0.0 | 0.0 | 0.00 | 0.00 | 0.00 | 91 | 1010.3 |
| 20260509112054 | 43 | 25 | 0.0 | 0.0 | 0.00 | 0.00 | 0.00 | 91 | 1010.3 |
| 20260509111551 | 43 | 44 | 0.0 | 0.0 | 0.00 | 0.00 | 0.00 | 92 | 1010.2 |
| 20260509111048 | 42 | 5 | 0.0 | 0.0 | 0.00 | 0.00 | 0.00 | 92 | 1010.4 |
| 20260509110545 | 42 | 9 | 0.0 | 0.0 | 0.00 | 0.00 | 0.00 | 92 | 1010.3 |
| 20260509110042 | 42 | 61 | 0.0 | 1.0 | 0.00 | 0.00 | 0.00 | 93 | 1010.4 |
| 20260509105540 | 42 | 343 | 0.0 | 0.0 | 0.00 | 0.00 | 0.00 | 93 | 1010.3 |
| 20260509105038 | 42 | 15 | 0.0 | 0.0 | 0.00 | 0.00 | 0.00 | 93 | 1010.2 |
| 20260509104534 | 41 | 51 | 0.0 | 0.0 | 0.00 | 0.00 | 0.00 | 93 | 1010.2 |
| 20260509104031 | 41 | 3 | 0.0 | 0.0 | 0.00 | 0.00 | 0.00 | 93 | 1010.3 |
| 20260509103529 | 41 | 17 | 0.0 | 0.0 | 0.00 | 0.00 | 0.00 | 93 | 1010.3 |
| 20260509103027 | 41 | 355 | 0.0 | 0.0 | 0.00 | 0.00 | 0.00 | 93 | 1010.5 |
| 20260509102524 | 41 | 348 | 0.0 | 0.0 | 0.00 | 0.00 | 0.00 | 93 | 1010.2 |
| 20260509102021 | 41 | 22 | 0.0 | 0.0 | 0.00 | 0.00 | 0.00 | 94 | 1010.2 |
| 20260509101517 | 40 | 8 | 0.0 | 0.0 | 0.00 | 0.00 | 0.00 | 94 | 1010.4 |
| 20260509101014 | 40 | 359 | 0.0 | 0.0 | 0.00 | 0.00 | 0.00 | 94 | 1010.3 |
| 20260509100512 | 40 | 3 | 0.0 | 0.0 | 0.00 | 0.00 | 0.00 | 94 | 1010.1 |
| 20260509100009 | 40 | 355 | 0.0 | 0.0 | 0.00 | 0.00 | 0.00 | 94 | 1010.1 |
| 20260509095505 | 40 | 15 | 0.0 | 0.0 | 0.00 | 0.00 | 0.00 | 94 | 1009.9 |
| 20260509095003 | 40 | 16 | 0.0 | 0.0 | 0.00 | 0.00 | 0.00 | 94 | 1009.8 |
| 20260509094459 | 39 | 0 | 0.0 | 0.0 | 0.00 | 0.00 | 0.00 | 94 | 1009.9 |
| 20260509093956 | 39 | 9 | 0.0 | 0.0 | 0.00 | 0.00 | 0.00 | 94 | 1009.8 |
| 20260509093454 | 39 | 24 | 0.0 | 0.0 | 0.00 | 0.00 | 0.00 | 94 | 1009.8 |
| 20260509092951 | 39 | 358 | 0.0 | 0.0 | 0.00 | 0.00 | 0.00 | 94 | 1009.8 |
| 20260509092449 | 39 | 15 | 0.0 | 0.0 | 0.00 | 0.00 | 0.00 | 94 | 1009.9 |
| 20260509091947 | 39 | 18 | 0.0 | 0.0 | 0.00 | 0.00 | 0.00 | 94 | 1010.1 |
| 20260509091438 | 39 | 8 | 0.0 | 0.0 | 0.00 | 0.00 | 0.00 | 94 | 1010.0 |
| 20260509090935 | 39 | 13 | 0.0 | 0.0 | 0.00 | 0.00 | 0.00 | 94 | 1010.3 |
| 20260509090433 | 39 | 23 | 0.0 | 0.0 | 0.00 | 0.00 | 0.00 | 94 | 1010.3 |
| 20260509085931 | 38 | 9 | 0.0 | 0.0 | 0.00 | 0.00 | 0.00 | 94 | 1010.4 |
| 20260509085427 | 38 | 355 | 0.0 | 0.0 | 0.00 | 0.00 | 0.00 | 95 | 1010.5 |
| 20260509084923 | 38 | 346 | 0.0 | 0.0 | 0.00 | 0.00 | 0.00 | 94 | 1010.5 |
| 20260509084420 | 38 | 346 | 0.0 | 0.0 | 0.00 | 0.00 | 0.00 | 95 | 1010.5 |
| 20260509083918 | 38 | 12 | 0.0 | 0.0 | 0.00 | 0.00 | 0.00 | 95 | 1010.4 |
| 20260509083415 | 38 | 2 | 0.0 | 0.0 | 0.00 | 0.00 | 0.00 | 95 | 1010.6 |
| 20260509082911 | 38 | 356 | 0.0 | 0.0 | 0.00 | 0.00 | 0.00 | 95 | 1010.4 |
| 20260509082409 | 38 | 0 | 0.0 | 0.0 | 0.00 | 0.00 | 0.00 | 95 | 1010.7 |
| 20260509081905 | 38 | 5 | 0.0 | 0.0 | 0.00 | 0.00 | 0.00 | 95 | 1010.7 |
| 20260509081403 | 38 | 9 | 0.0 | 0.0 | 0.00 | 0.00 | 0.00 | 94 | 1010.9 |
| 20260509080900 | 37 | 355 | 0.0 | 0.0 | 0.00 | 0.00 | 0.00 | 94 | 1011.0 |
| 20260509080358 | 37 | 348 | 0.0 | 0.0 | 0.00 | 0.00 | 0.00 | 94 | 1010.9 |
| 20260509075856 | 37 | 341 | 0.0 | 0.0 | 0.00 | 0.00 | 0.00 | 94 | 1010.8 |
| 20260509075353 | 37 | 343 | 0.0 | 0.0 | 0.00 | 0.00 | 0.00 | 94 | 1011.1 |
| 20260509074850 | 38 | 317 | 0.0 | 0.0 | 0.00 | 0.00 | 0.00 | 94 | 1010.8 |
| 20260509074348 | 37 | 310 | 0.0 | 0.0 | 0.00 | 0.00 | 0.00 | 94 | 1010.9 |
| 20260509073843 | 37 | 346 | 0.0 | 0.0 | 0.00 | 0.00 | 0.00 | 94 | 1010.7 |
| 20260509073340 | 37 | 346 | 0.0 | 0.0 | 0.00 | 0.00 | 0.00 | 94 | 1011.1 |
| 20260509072837 | 37 | 335 | 0.0 | 0.0 | 0.00 | 0.00 | 0.00 | 94 | 1010.9 |
| 20260509072333 | 37 | 334 | 0.0 | 0.0 | 0.00 | 0.00 | 0.00 | 93 | 1011.1 |
| 20260509071830 | 37 | 335 | 0.0 | 0.0 | 0.00 | 0.00 | 0.00 | 93 | 1010.9 |
| 20260509071327 | 37 | 332 | 0.0 | 0.0 | 0.00 | 0.00 | 0.00 | 93 | 1010.9 |
| 20260509070824 | 38 | 335 | 0.0 | 0.0 | 0.00 | 0.00 | 0.00 | 93 | 1010.9 |
| 20260509070321 | 38 | 346 | 0.0 | 0.0 | 0.00 | 0.00 | 0.00 | 93 | 1010.6 |
| 20260509065817 | 38 | 346 | 0.0 | 0.0 | 0.00 | 0.00 | 0.00 | 93 | 1011.0 |
| 20260509065314 | 39 | 346 | 0.0 | 0.0 | 0.00 | 0.00 | 0.00 | 93 | 1011.0 |
| 20260509064809 | 39 | 348 | 0.0 | 0.0 | 0.00 | 0.00 | 0.00 | 93 | 1011.0 |
| 20260509064307 | 39 | 347 | 0.0 | 0.0 | 0.00 | 0.00 | 0.00 | 93 | 1011.1 |
| 20260509063805 | 39 | 341 | 0.0 | 0.0 | 0.00 | 0.00 | 0.00 | 93 | 1011.3 |
| 20260509063301 | 39 | 341 | 0.0 | 0.0 | 0.00 | 0.00 | 0.00 | 93 | 1011.2 |
| 20260509062758 | 39 | 346 | 0.0 | 0.0 | 0.00 | 0.00 | 0.00 | 93 | 1011.1 |
| 20260509062255 | 39 | 345 | 0.0 | 0.0 | 0.00 | 0.00 | 0.00 | 93 | 1011.2 |
| 20260509061752 | 39 | 347 | 0.0 | 0.0 | 0.00 | 0.00 | 0.00 | 93 | 1011.1 |
| 20260509061250 | 39 | 357 | 0.0 | 0.0 | 0.00 | 0.00 | 0.00 | 93 | 1011.4 |
| 20260509060747 | 39 | 346 | 0.0 | 0.0 | 0.00 | 0.00 | 0.00 | 93 | 1011.4 |
| 20260509060243 | 38 | 344 | 0.0 | 0.0 | 0.00 | 0.00 | 0.00 | 93 | 1011.5 |
| 20260509055739 | 39 | 341 | 0.0 | 0.0 | 0.00 | 0.00 | 0.00 | 93 | 1011.6 |
| 20260509055235 | 39 | 341 | 0.0 | 0.0 | 0.00 | 0.00 | 0.00 | 93 | 1011.6 |
| 20260509054732 | 39 | 345 | 0.0 | 0.0 | 0.00 | 0.00 | 0.00 | 93 | 1011.7 |
| 20260509054229 | 38 | 4 | 0.0 | 0.0 | 0.00 | 0.00 | 0.00 | 94 | 1011.5 |
| 20260509053727 | 38 | 341 | 0.0 | 0.0 | 0.00 | 0.00 | 0.00 | 94 | 1011.8 |
| 20260509053224 | 38 | 340 | 0.0 | 0.0 | 0.00 | 0.00 | 0.00 | 93 | 1011.9 |
| 20260509052722 | 38 | 340 | 0.0 | 0.0 | 0.00 | 0.00 | 0.00 | 93 | 1012.0 |
| 20260509052219 | 38 | 345 | 0.0 | 0.0 | 0.00 | 0.00 | 0.00 | 93 | 1011.9 |
| 20260509051717 | 38 | 21 | 0.0 | 0.0 | 0.00 | 0.00 | 0.00 | 94 | 1011.9 |
| 20260509051215 | 38 | 341 | 0.0 | 0.0 | 0.00 | 0.00 | 0.00 | 94 | 1012.3 |
| 20260509050711 | 38 | 345 | 0.0 | 0.0 | 0.00 | 0.00 | 0.00 | 93 | 1012.1 |
| 20260509050208 | 38 | 356 | 0.0 | 0.0 | 0.00 | 0.00 | 0.00 | 93 | 1012.0 |
| 20260509045705 | 38 | 350 | 0.0 | 0.0 | 0.00 | 0.00 | 0.00 | 93 | 1012.2 |
| 20260509045202 | 38 | 17 | 0.0 | 0.0 | 0.00 | 0.00 | 0.00 | 93 | 1011.9 |
| 20260509044659 | 38 | 335 | 0.0 | 0.0 | 0.00 | 0.00 | 0.00 | 93 | 1012.1 |
| 20260509044156 | 38 | 356 | 0.0 | 0.0 | 0.00 | 0.00 | 0.00 | 94 | 1012.0 |
| 20260509043653 | 38 | 352 | 0.0 | 0.0 | 0.00 | 0.00 | 0.00 | 94 | 1012.2 |
| 20260509043149 | 38 | 40 | 0.0 | 0.0 | 0.00 | 0.00 | 0.00 | 94 | 1012.1 |
| 20260509042645 | 38 | 334 | 0.0 | 0.0 | 0.00 | 0.00 | 0.00 | 93 | 1012.1 |
| 20260509042141 | 38 | 337 | 0.0 | 0.0 | 0.00 | 0.00 | 0.00 | 93 | 1012.3 |
| 20260509041638 | 38 | 331 | 0.0 | 0.0 | 0.00 | 0.00 | 0.00 | 93 | 1012.2 |
| 20260509041136 | 38 | 325 | 0.0 | 0.0 | 0.00 | 0.00 | 0.00 | 93 | 1012.0 |
| 20260509040634 | 37 | 334 | 0.0 | 0.0 | 0.00 | 0.00 | 0.00 | 93 | 1012.1 |
| 20260509040131 | 38 | 332 | 0.0 | 0.0 | 0.00 | 0.00 | 0.00 | 93 | 1012.3 |
| 20260509035627 | 38 | 328 | 0.0 | 0.0 | 0.00 | 0.20 | 0.20 | 93 | 1012.1 |
| 20260509035124 | 38 | 331 | 0.0 | 0.0 | 0.00 | 0.20 | 0.20 | 93 | 1012.2 |
| 20260509034622 | 38 | 337 | 0.0 | 0.0 | 0.00 | 0.20 | 0.20 | 92 | 1012.1 |
| 20260509034119 | 38 | 323 | 0.0 | 0.0 | 0.00 | 0.20 | 0.20 | 92 | 1012.1 |
| 20260509033615 | 38 | 333 | 0.0 | 0.0 | 0.00 | 0.20 | 0.20 | 92 | 1011.9 |
| 20260509033112 | 38 | 337 | 0.0 | 0.0 | 0.00 | 0.20 | 0.20 | 92 | 1012.0 |
| 20260509032610 | 38 | 338 | 0.0 | 0.0 | 0.00 | 0.20 | 0.20 | 91 | 1012.1 |
| 20260509032107 | 39 | 328 | 0.0 | 0.0 | 0.00 | 0.20 | 0.20 | 91 | 1012.2 |
| 20260509031604 | 39 | 320 | 0.0 | 0.0 | 0.00 | 0.20 | 0.20 | 91 | 1012.0 |
| 20260509031102 | 39 | 355 | 0.0 | 0.0 | 0.00 | 0.20 | 0.20 | 91 | 1012.1 |
| 20260509030600 | 39 | 346 | 0.0 | 0.0 | 0.00 | 0.20 | 0.20 | 90 | 1012.3 |
| 20260509030056 | 39 | 342 | 0.0 | 0.0 | 0.00 | 0.20 | 0.20 | 90 | 1012.2 |
| 20260509025552 | 39 | 349 | 0.0 | 0.0 | 0.00 | 0.20 | 0.20 | 90 | 1012.1 |
| 20260509025048 | 40 | 348 | 0.0 | 0.0 | 0.00 | 0.20 | 0.20 | 89 | 1012.1 |
| 20260509024544 | 40 | 347 | 0.0 | 0.0 | 0.00 | 0.20 | 0.20 | 89 | 1012.2 |
| 20260509024040 | 39 | 343 | 0.0 | 0.0 | 0.00 | 0.20 | 0.20 | 89 | 1012.4 |
| 20260509023538 | 39 | 347 | 0.0 | 0.0 | 0.00 | 0.20 | 0.20 | 88 | 1012.3 |
| 20260509023035 | 39 | 345 | 0.0 | 0.0 | 0.00 | 0.20 | 0.20 | 88 | 1012.2 |
| 20260509022531 | 40 | 335 | 0.0 | 0.0 | 0.00 | 0.20 | 0.20 | 88 | 1012.3 |
| 20260509022029 | 40 | 331 | 0.0 | 0.0 | 0.00 | 0.20 | 0.20 | 87 | 1012.2 |
| 20260509021526 | 40 | 330 | 0.0 | 0.0 | 0.00 | 0.20 | 0.20 | 87 | 1012.3 |
| 20260509021023 | 40 | 350 | 0.0 | 0.0 | 0.00 | 0.20 | 0.20 | 87 | 1012.4 |
| 20260509020521 | 40 | 350 | 0.0 | 0.0 | 0.00 | 0.20 | 0.20 | 86 | 1012.3 |
| 20260509020018 | 40 | 346 | 0.0 | 0.0 | 0.00 | 0.20 | 0.20 | 86 | 1012.3 |
| 20260509015517 | 41 | 354 | 0.0 | 0.0 | 0.00 | 0.20 | 0.20 | 86 | 1012.2 |
| 20260509015014 | 41 | 354 | 0.0 | 0.0 | 0.00 | 0.20 | 0.20 | 85 | 1012.2 |
| 20260509014511 | 41 | 6 | 0.0 | 0.0 | 0.00 | 0.20 | 0.20 | 85 | 1012.2 |
| 20260509014007 | 41 | 9 | 0.0 | 0.0 | 0.00 | 0.20 | 0.20 | 84 | 1011.9 |
| 20260509013504 | 41 | 0 | 0.0 | 0.0 | 0.00 | 0.20 | 0.20 | 84 | 1011.9 |
| 20260509012959 | 41 | 0 | 0.0 | 0.0 | 0.00 | 0.20 | 0.20 | 84 | 1011.9 |
| 20260509012456 | 42 | 0 | 0.0 | 0.0 | 0.00 | 0.20 | 0.20 | 84 | 1011.9 |
| 20260509011953 | 42 | 359 | 0.0 | 0.0 | 0.00 | 0.20 | 0.20 | 83 | 1011.8 |
| 20260509011451 | 42 | 5 | 0.0 | 0.0 | 0.00 | 0.20 | 0.20 | 83 | 1011.8 |
| 20260509010948 | 42 | 4 | 0.0 | 0.0 | 0.00 | 0.20 | 0.20 | 82 | 1011.6 |
| 20260509010446 | 43 | 8 | 0.0 | 0.0 | 0.00 | 0.20 | 0.20 | 82 | 1011.5 |
| 20260509005942 | 43 | 8 | 0.0 | 0.0 | 0.00 | 0.20 | 0.20 | 81 | 1011.5 |
| 20260509005441 | 44 | 8 | 0.0 | 0.0 | 0.00 | 0.20 | 0.20 | 80 | 1011.4 |
| 20260509004940 | 44 | 9 | 0.0 | 0.0 | 0.00 | 0.20 | 0.20 | 79 | 1011.4 |
| 20260509004437 | 45 | 16 | 0.0 | 0.0 | 0.00 | 0.20 | 0.20 | 78 | 1011.5 |
| 20260509003935 | 45 | 16 | 0.0 | 0.0 | 0.00 | 0.20 | 0.20 | 76 | 1011.3 |
| 20260509003433 | 45 | 16 | 0.0 | 0.0 | 0.00 | 0.20 | 0.20 | 75 | 1011.5 |
| 20260509002929 | 46 | 17 | 0.0 | 0.0 | 0.00 | 0.20 | 0.20 | 75 | 1011.3 |
| 20260509002427 | 46 | 40 | 0.0 | 0.0 | 0.00 | 0.20 | 0.20 | 74 | 1011.1 |
| 20260509001924 | 47 | 0 | 0.0 | 0.0 | 0.00 | 0.20 | 0.20 | 72 | 1011.2 |
| 20260509001421 | 47 | 0 | 0.0 | 0.0 | 0.00 | 0.20 | 0.20 | 71 | 1011.2 |
| 20260509000918 | 48 | 30 | 0.0 | 0.0 | 0.00 | 0.20 | 0.20 | 70 | 1011.0 |
| 20260509000418 | 48 | 30 | 0.0 | 0.0 | 0.00 | 0.20 | 0.20 | 68 | 1011.1 |
| 20260508235911 | 49 | 31 | 0.0 | 0.0 | 0.00 | 0.20 | 0.20 | 66 | 1011.2 |
| 20260508235409 | 49 | 9 | 0.0 | 0.0 | 0.00 | 0.20 | 0.20 | 65 | 1011.1 |
| 20260508234906 | 50 | 9 | 0.0 | 0.0 | 0.00 | 0.20 | 0.20 | 63 | 1010.9 |
| 20260508234402 | 51 | 9 | 0.0 | 0.0 | 0.00 | 0.20 | 0.20 | 62 | 1010.9 |
| 20260508233901 | 52 | 9 | 0.0 | 0.0 | 0.00 | 0.20 | 0.20 | 58 | 1010.8 |
| 20260508233400 | 53 | 9 | 0.0 | 0.0 | 0.00 | 0.20 | 0.20 | 55 | 1010.9 |
| 20260508232856 | 53 | 8 | 0.0 | 0.0 | 0.00 | 0.20 | 0.20 | 50 | 1011.0 |
| 20260508232352 | 54 | 275 | 0.0 | 0.0 | 0.00 | 0.20 | 0.20 | 48 | 1010.8 |
| 20260508231851 | 54 | 275 | 0.0 | 0.0 | 0.00 | 0.20 | 0.20 | 48 | 1010.8 |
| 20260508231347 | 54 | 35 | 0.0 | 0.0 | 0.00 | 0.20 | 0.20 | 48 | 1010.7 |
| 20260508230843 | 55 | 346 | 0.0 | 0.0 | 0.00 | 0.20 | 0.20 | 48 | 1010.7 |
| 20260508230340 | 55 | 312 | 0.0 | 0.0 | 0.00 | 0.20 | 0.20 | 49 | 1010.8 |
| 20260508225838 | 56 | 1 | 0.0 | 0.0 | 0.00 | 0.20 | 0.20 | 48 | 1010.9 |
| 20260508225334 | 57 | 345 | 0.0 | 0.0 | 0.00 | 0.20 | 0.20 | 48 | 1010.8 |
| 20260508224832 | 56 | 284 | 0.0 | 0.0 | 0.00 | 0.20 | 0.20 | 45 | 1011.0 |
| 20260508224329 | 56 | 71 | 0.0 | 1.0 | 0.00 | 0.20 | 0.20 | 47 | 1010.9 |
| 20260508223827 | 56 | 352 | 0.0 | 0.0 | 0.00 | 0.20 | 0.20 | 48 | 1011.0 |
| 20260508223324 | 56 | 271 | 0.0 | 0.0 | 0.00 | 0.20 | 0.20 | 47 | 1010.8 |
| 20260508222822 | 56 | 30 | 0.0 | 1.0 | 0.00 | 0.20 | 0.20 | 50 | 1010.9 |
| 20260508222318 | 56 | 359 | 0.0 | 0.0 | 0.00 | 0.20 | 0.20 | 50 | 1011.1 |
| 20260508221815 | 56 | 13 | 0.0 | 2.0 | 0.00 | 0.20 | 0.20 | 50 | 1011.2 |
| 20260508221310 | 56 | 331 | 0.0 | 1.0 | 0.00 | 0.20 | 0.20 | 50 | 1011.2 |
| 20260508220807 | 54 | 285 | 1.0 | 2.0 | 0.00 | 0.20 | 0.20 | 53 | 1011.2 |
| 20260508220304 | 55 | 269 | 0.0 | 0.0 | 0.00 | 0.20 | 0.20 | 52 | 1011.2 |
| 20260508215800 | 57 | 302 | 0.0 | 0.0 | 0.00 | 0.20 | 0.20 | 52 | 1011.3 |
| 20260508215257 | 57 | 332 | 0.0 | 1.0 | 0.00 | 0.20 | 0.20 | 54 | 1011.2 |
| 20260508214754 | 57 | 168 | 0.0 | 1.0 | 0.00 | 0.20 | 0.20 | 52 | 1011.2 |
| 20260508214251 | 57 | 294 | 0.0 | 0.0 | 0.00 | 0.20 | 0.20 | 53 | 1011.1 |
| 20260508213747 | 56 | 336 | 0.0 | 1.0 | 0.00 | 0.20 | 0.20 | 55 | 1011.3 |
| 20260508213244 | 57 | 5 | 1.0 | 2.0 | 0.00 | 0.20 | 0.20 | 53 | 1011.2 |
| 20260508212741 | 58 | 281 | 0.0 | 0.0 | 0.00 | 0.20 | 0.20 | 54 | 1011.2 |
| 20260508212237 | 58 | 284 | 0.0 | 0.0 | 0.00 | 0.20 | 0.20 | 51 | 1011.3 |
| 20260508211733 | 57 | 240 | 0.0 | 1.0 | 0.00 | 0.20 | 0.20 | 54 | 1011.2 |
| 20260508211229 | 57 | 350 | 2.0 | 2.0 | 0.00 | 0.20 | 0.20 | 54 | 1011.2 |
| 20260508210727 | 55 | 16 | 1.0 | 1.0 | 0.00 | 0.20 | 0.20 | 56 | 1011.5 |
| 20260508210223 | 55 | 341 | 0.0 | 0.0 | 0.00 | 0.20 | 0.20 | 57 | 1011.2 |
| 20260508205720 | 56 | 323 | 0.0 | 1.0 | 0.00 | 0.20 | 0.20 | 56 | 1011.3 |
| 20260508205217 | 55 | 346 | 0.0 | 0.0 | 0.00 | 0.20 | 0.20 | 58 | 1011.3 |
| 20260508204713 | 53 | 332 | 0.0 | 0.0 | 0.00 | 0.20 | 0.20 | 59 | 1011.5 |
| 20260508204209 | 53 | 324 | 0.0 | 0.0 | 0.00 | 0.20 | 0.20 | 59 | 1011.3 |
| 20260508203706 | 53 | 329 | 0.0 | 0.0 | 0.00 | 0.20 | 0.20 | 59 | 1011.4 |
| 20260508203202 | 53 | 315 | 0.0 | 1.0 | 0.00 | 0.20 | 0.20 | 59 | 1011.3 |
| 20260508202658 | 53 | 301 | 0.0 | 0.0 | 0.00 | 0.20 | 0.20 | 59 | 1011.2 |
| 20260508202155 | 54 | 319 | 0.0 | 1.0 | 0.00 | 0.20 | 0.20 | 58 | 1011.5 |
| 20260508201652 | 55 | 200 | 0.0 | 0.0 | 0.00 | 0.20 | 0.20 | 60 | 1011.5 |
| 20260508201149 | 57 | 212 | 1.0 | 1.0 | 0.00 | 0.20 | 0.20 | 55 | 1011.6 |
| 20260508200646 | 56 | 229 | 0.0 | 0.0 | 0.00 | 0.20 | 0.20 | 60 | 1011.6 |
| 20260508200142 | 55 | 240 | 2.0 | 3.0 | 0.00 | 0.20 | 0.20 | 54 | 1011.7 |
| 20260508195638 | 55 | 198 | 0.0 | 1.0 | 0.00 | 0.20 | 0.20 | 60 | 1011.7 |
| 20260508195134 | 56 | 235 | 1.0 | 2.0 | 0.00 | 0.20 | 0.20 | 58 | 1011.7 |
| 20260508194626 | 55 | 180 | 3.0 | 3.0 | 0.00 | 0.20 | 0.20 | 58 | 1011.7 |
| 20260508194123 | 55 | 209 | 0.0 | 0.0 | 0.00 | 0.20 | 0.20 | 61 | 1011.8 |
| 20260508193620 | 55 | 219 | 1.0 | 2.0 | 0.00 | 0.20 | 0.20 | 61 | 1011.9 |
| 20260508193116 | 56 | 328 | 1.0 | 1.0 | 0.00 | 0.20 | 0.20 | 59 | 1011.9 |
| 20260508192613 | 56 | 195 | 3.0 | 5.0 | 0.00 | 0.20 | 0.20 | 58 | 1011.9 |
| 20260508192110 | 55 | 11 | 0.0 | 1.0 | 0.00 | 0.20 | 0.20 | 60 | 1011.9 |
| 20260508191607 | 57 | 285 | 2.0 | 3.0 | 0.00 | 0.20 | 0.20 | 62 | 1012.0 |
| 20260508191104 | 56 | 293 | 1.0 | 3.0 | 0.00 | 0.20 | 0.20 | 64 | 1011.8 |
| 20260508190601 | 56 | 349 | 2.0 | 2.0 | 0.00 | 0.20 | 0.20 | 64 | 1012.1 |
| 20260508190057 | 56 | 307 | 3.0 | 3.0 | 0.00 | 0.20 | 0.20 | 65 | 1012.2 |
| 20260508185554 | 55 | 319 | 0.0 | 0.0 | 0.00 | 0.20 | 0.20 | 66 | 1011.8 |
| 20260508185052 | 55 | 237 | 1.0 | 2.0 | 0.00 | 0.20 | 0.20 | 63 | 1012.1 |
| 20260508184549 | 55 | 228 | 2.0 | 5.0 | 0.00 | 0.20 | 0.20 | 64 | 1012.1 |
| 20260508184045 | 54 | 240 | 3.0 | 5.0 | 0.00 | 0.20 | 0.20 | 64 | 1012.3 |
| 20260508183542 | 54 | 287 | 0.0 | 1.0 | 0.00 | 0.20 | 0.20 | 68 | 1012.3 |
| 20260508183038 | 53 | 302 | 1.0 | 2.0 | 0.00 | 0.20 | 0.20 | 67 | 1012.2 |
| 20260508182534 | 53 | 229 | 0.0 | 1.0 | 0.00 | 0.20 | 0.20 | 68 | 1012.4 |
| 20260508182031 | 52 | 272 | 1.0 | 3.0 | 0.00 | 0.20 | 0.20 | 71 | 1012.4 |
| 20260508181527 | 50 | 188 | 2.0 | 7.0 | 0.00 | 0.20 | 0.20 | 73 | 1012.2 |
| 20260508181025 | 50 | 326 | 0.0 | 0.0 | 0.00 | 0.20 | 0.20 | 73 | 1012.5 |
| 20260508180521 | 50 | 334 | 0.0 | 0.0 | 0.00 | 0.20 | 0.20 | 73 | 1012.5 |
| 20260508180017 | 50 | 336 | 0.0 | 0.0 | 0.00 | 0.20 | 0.20 | 72 | 1012.4 |
| 20260508175514 | 49 | 298 | 0.0 | 0.0 | 0.00 | 0.20 | 0.20 | 74 | 1012.5 |
| 20260508175011 | 49 | 242 | 0.0 | 1.0 | 0.00 | 0.20 | 0.20 | 73 | 1012.2 |
| 20260508174509 | 50 | 146 | 0.0 | 1.0 | 0.00 | 0.20 | 0.20 | 73 | 1012.5 |
| 20260508174006 | 50 | 197 | 0.0 | 0.0 | 0.00 | 0.20 | 0.20 | 73 | 1012.3 |
| 20260508173503 | 51 | 340 | 0.0 | 0.0 | 0.00 | 0.20 | 0.20 | 74 | 1012.5 |
| 20260508172959 | 51 | 193 | 1.0 | 2.0 | 0.00 | 0.20 | 0.20 | 75 | 1012.6 |
| 20260508172455 | 49 | 203 | 0.0 | 0.0 | 0.00 | 0.20 | 0.20 | 76 | 1012.5 |
| 20260508171951 | 50 | 222 | 2.0 | 3.0 | 0.00 | 0.20 | 0.20 | 76 | 1012.6 |
| 20260508171448 | 50 | 303 | 0.0 | 0.0 | 0.00 | 0.20 | 0.20 | 76 | 1012.9 |
| 20260508170945 | 50 | 177 | 0.0 | 0.0 | 0.00 | 0.20 | 0.20 | 78 | 1012.7 |
| 20260508170443 | 50 | 347 | 1.0 | 2.0 | 0.00 | 0.20 | 0.20 | 81 | 1012.8 |
| 20260508165939 | 49 | 347 | 2.0 | 2.0 | 0.00 | 0.20 | 0.20 | 85 | 1012.5 |
| 20260508165438 | 48 | 315 | 0.0 | 0.0 | 0.00 | 0.20 | 0.20 | 86 | 1012.7 |
| 20260508164933 | 48 | 269 | 2.0 | 2.0 | 0.00 | 0.20 | 0.20 | 87 | 1012.8 |
| 20260508164430 | 48 | 212 | 1.0 | 2.0 | 0.00 | 0.20 | 0.20 | 89 | 1012.8 |
| 20260508163927 | 47 | 336 | 0.0 | 0.0 | 0.00 | 0.20 | 0.20 | 92 | 1012.8 |
| 20260508163425 | 46 | 322 | 0.0 | 0.0 | 0.00 | 0.20 | 0.20 | 92 | 1013.0 |
| 20260508162920 | 46 | 8 | 0.0 | 0.0 | 0.00 | 0.20 | 0.20 | 93 | 1012.9 |
| 20260508162418 | 46 | 308 | 0.0 | 0.0 | 0.00 | 0.20 | 0.20 | 92 | 1013.3 |